sensor_id;sensor_type;location;lat;lon;timestamp;temperature;humidity
37530;DHT22;23374;52.758;6.872;2022-10-16T00:01:52;13.80;99.90
37530;DHT22;23374;52.758;6.872;2022-10-16T00:04:13;13.90;99.90
37530;DHT22;23374;52.758;6.872;2022-10-16T00:06:33;13.90;99.90
37530;DHT22;23374;52.758;6.872;2022-10-16T00:08:54;13.90;99.90
37530;DHT22;23374;52.758;6.872;2022-10-16T00:11:22;13.90;99.90
37530;DHT22;23374;52.758;6.872;2022-10-16T00:13:44;13.80;99.90
37530;DHT22;23374;52.758;6.872;2022-10-16T00:16:06;13.80;99.90
37530;DHT22;23374;52.758;6.872;2022-10-16T00:18:28;13.80;99.90
37530;DHT22;23374;52.758;6.872;2022-10-16T00:20:49;13.80;99.90
37530;DHT22;23374;52.758;6.872;2022-10-16T00:23:10;13.80;99.90
37530;DHT22;23374;52.758;6.872;2022-10-16T00:25:31;13.80;99.90
37530;DHT22;23374;52.758;6.872;2022-10-16T00:27:52;13.70;99.90
37530;DHT22;23374;52.758;6.872;2022-10-16T00:30:12;13.70;99.90
37530;DHT22;23374;52.758;6.872;2022-10-16T00:32:33;13.70;99.90
37530;DHT22;23374;52.758;6.872;2022-10-16T00:34:53;13.70;99.90
37530;DHT22;23374;52.758;6.872;2022-10-16T00:37:15;13.70;99.90
37530;DHT22;23374;52.758;6.872;2022-10-16T00:39:36;13.70;99.90
37530;DHT22;23374;52.758;6.872;2022-10-16T00:41:56;13.70;99.90
37530;DHT22;23374;52.758;6.872;2022-10-16T00:44:51;13.70;99.90
37530;DHT22;23374;52.758;6.872;2022-10-16T00:47:34;13.70;99.90
37530;DHT22;23374;52.758;6.872;2022-10-16T00:50:45;13.70;99.90
37530;DHT22;23374;52.758;6.872;2022-10-16T00:53:05;13.80;99.90
37530;DHT22;23374;52.758;6.872;2022-10-16T00:55:26;13.70;99.90
37530;DHT22;23374;52.758;6.872;2022-10-16T00:57:50;13.70;99.90
37530;DHT22;23374;52.758;6.872;2022-10-16T01:00:17;13.70;99.90
37530;DHT22;23374;52.758;6.872;2022-10-16T01:02:38;13.70;99.90
37530;DHT22;23374;52.758;6.872;2022-10-16T01:04:58;13.70;99.90
37530;DHT22;23374;52.758;6.872;2022-10-16T01:07:53;13.70;99.90
37530;DHT22;23374;52.758;6.872;2022-10-16T01:15:34;13.70;99.90
37530;DHT22;23374;52.758;6.872;2022-10-16T01:20:31;13.70;99.90
37530;DHT22;23374;52.758;6.872;2022-10-16T01:25:49;13.70;99.90
37530;DHT22;23374;52.758;6.872;2022-10-16T01:28:15;13.60;99.90
37530;DHT22;23374;52.758;6.872;2022-10-16T01:30:36;13.60;99.90
37530;DHT22;23374;52.758;6.872;2022-10-16T01:33:10;13.60;99.90
37530;DHT22;23374;52.758;6.872;2022-10-16T01:35:42;13.60;99.90
37530;DHT22;23374;52.758;6.872;2022-10-16T01:38:30;13.60;99.90
37530;DHT22;23374;52.758;6.872;2022-10-16T01:40:59;13.60;99.90
37530;DHT22;23374;52.758;6.872;2022-10-16T01:43:37;13.60;99.90
37530;DHT22;23374;52.758;6.872;2022-10-16T01:46:00;13.60;99.90
37530;DHT22;23374;52.758;6.872;2022-10-16T01:48:22;13.60;99.90
37530;DHT22;23374;52.758;6.872;2022-10-16T01:50:57;13.60;99.90
37530;DHT22;23374;52.758;6.872;2022-10-16T01:53:19;13.60;99.90
37530;DHT22;23374;52.758;6.872;2022-10-16T01:55:44;13.50;99.90
37530;DHT22;23374;52.758;6.872;2022-10-16T01:58:08;13.50;99.90
37530;DHT22;23374;52.758;6.872;2022-10-16T02:00:29;13.50;99.90
37530;DHT22;23374;52.758;6.872;2022-10-16T02:02:53;13.50;99.90
37530;DHT22;23374;52.758;6.872;2022-10-16T02:05:34;13.50;99.90
37530;DHT22;23374;52.758;6.872;2022-10-16T02:07:58;13.50;99.90
37530;DHT22;23374;52.758;6.872;2022-10-16T02:10:19;13.50;99.90
37530;DHT22;23374;52.758;6.872;2022-10-16T02:12:49;13.50;99.90
37530;DHT22;23374;52.758;6.872;2022-10-16T02:15:11;13.50;99.90
37530;DHT22;23374;52.758;6.872;2022-10-16T02:17:31;13.50;99.90
37530;DHT22;23374;52.758;6.872;2022-10-16T02:19:54;13.50;99.90
37530;DHT22;23374;52.758;6.872;2022-10-16T02:22:45;13.50;99.90
37530;DHT22;23374;52.758;6.872;2022-10-16T02:25:29;13.50;99.90
37530;DHT22;23374;52.758;6.872;2022-10-16T02:28:00;13.50;99.90
37530;DHT22;23374;52.758;6.872;2022-10-16T02:30:39;13.50;99.90
37530;DHT22;23374;52.758;6.872;2022-10-16T02:33:03;13.50;99.90
37530;DHT22;23374;52.758;6.872;2022-10-16T02:35:25;13.50;99.90
37530;DHT22;23374;52.758;6.872;2022-10-16T02:37:48;13.50;99.90
37530;DHT22;23374;52.758;6.872;2022-10-16T02:40:11;13.50;99.90
37530;DHT22;23374;52.758;6.872;2022-10-16T02:42:38;13.50;99.90
37530;DHT22;23374;52.758;6.872;2022-10-16T02:44:59;13.50;99.90
37530;DHT22;23374;52.758;6.872;2022-10-16T02:47:19;13.50;99.90
37530;DHT22;23374;52.758;6.872;2022-10-16T02:49:39;13.50;99.90
37530;DHT22;23374;52.758;6.872;2022-10-16T02:51:59;13.50;99.90
37530;DHT22;23374;52.758;6.872;2022-10-16T02:54:20;13.60;99.90
37530;DHT22;23374;52.758;6.872;2022-10-16T02:56:40;13.60;99.90
37530;DHT22;23374;52.758;6.872;2022-10-16T02:59:00;13.60;99.90
37530;DHT22;23374;52.758;6.872;2022-10-16T03:01:21;13.60;99.90
37530;DHT22;23374;52.758;6.872;2022-10-16T03:03:42;13.60;99.90
37530;DHT22;23374;52.758;6.872;2022-10-16T03:06:02;13.60;99.90
37530;DHT22;23374;52.758;6.872;2022-10-16T03:08:23;13.60;99.90
37530;DHT22;23374;52.758;6.872;2022-10-16T03:10:45;13.70;99.90
37530;DHT22;23374;52.758;6.872;2022-10-16T03:13:05;13.70;99.90
37530;DHT22;23374;52.758;6.872;2022-10-16T03:15:26;13.70;99.90
37530;DHT22;23374;52.758;6.872;2022-10-16T03:17:48;13.70;99.90
37530;DHT22;23374;52.758;6.872;2022-10-16T03:20:08;13.80;99.90
37530;DHT22;23374;52.758;6.872;2022-10-16T03:22:29;13.80;99.90
37530;DHT22;23374;52.758;6.872;2022-10-16T03:24:49;13.80;99.90
37530;DHT22;23374;52.758;6.872;2022-10-16T03:27:10;13.80;99.90
37530;DHT22;23374;52.758;6.872;2022-10-16T03:29:30;13.80;99.90
37530;DHT22;23374;52.758;6.872;2022-10-16T03:31:52;13.90;99.90
37530;DHT22;23374;52.758;6.872;2022-10-16T03:34:12;13.90;99.90
37530;DHT22;23374;52.758;6.872;2022-10-16T03:36:32;13.90;99.90
37530;DHT22;23374;52.758;6.872;2022-10-16T03:38:53;13.90;99.90
37530;DHT22;23374;52.758;6.872;2022-10-16T03:41:13;13.90;99.90
37530;DHT22;23374;52.758;6.872;2022-10-16T03:43:34;13.90;99.90
37530;DHT22;23374;52.758;6.872;2022-10-16T03:45:54;13.90;99.90
37530;DHT22;23374;52.758;6.872;2022-10-16T03:48:14;13.90;99.90
37530;DHT22;23374;52.758;6.872;2022-10-16T03:50:34;13.90;99.90
37530;DHT22;23374;52.758;6.872;2022-10-16T03:52:55;13.90;99.90
37530;DHT22;23374;52.758;6.872;2022-10-16T03:55:15;13.90;99.90
37530;DHT22;23374;52.758;6.872;2022-10-16T03:57:35;13.90;99.90
37530;DHT22;23374;52.758;6.872;2022-10-16T03:59:55;13.90;99.90
37530;DHT22;23374;52.758;6.872;2022-10-16T04:02:15;13.90;99.90
37530;DHT22;23374;52.758;6.872;2022-10-16T04:04:36;13.90;99.90
37530;DHT22;23374;52.758;6.872;2022-10-16T04:06:56;13.80;99.90
37530;DHT22;23374;52.758;6.872;2022-10-16T04:09:16;13.80;99.90
37530;DHT22;23374;52.758;6.872;2022-10-16T04:11:37;13.80;99.90
37530;DHT22;23374;52.758;6.872;2022-10-16T04:13:57;13.80;99.90
37530;DHT22;23374;52.758;6.872;2022-10-16T04:16:17;13.80;99.90
37530;DHT22;23374;52.758;6.872;2022-10-16T04:18:37;13.70;99.90
37530;DHT22;23374;52.758;6.872;2022-10-16T04:21:04;13.70;99.90
37530;DHT22;23374;52.758;6.872;2022-10-16T04:23:24;13.70;99.90
37530;DHT22;23374;52.758;6.872;2022-10-16T04:25:44;13.70;99.90
37530;DHT22;23374;52.758;6.872;2022-10-16T04:28:05;13.70;99.90
37530;DHT22;23374;52.758;6.872;2022-10-16T04:30:25;13.70;99.90
37530;DHT22;23374;52.758;6.872;2022-10-16T04:32:50;13.70;99.90
37530;DHT22;23374;52.758;6.872;2022-10-16T04:35:10;13.70;99.90
37530;DHT22;23374;52.758;6.872;2022-10-16T04:37:31;13.70;99.90
37530;DHT22;23374;52.758;6.872;2022-10-16T04:39:55;13.70;99.90
37530;DHT22;23374;52.758;6.872;2022-10-16T04:42:15;13.60;99.90
37530;DHT22;23374;52.758;6.872;2022-10-16T04:44:35;13.60;99.90
37530;DHT22;23374;52.758;6.872;2022-10-16T04:46:56;13.70;99.90
37530;DHT22;23374;52.758;6.872;2022-10-16T04:49:17;13.60;99.90
37530;DHT22;23374;52.758;6.872;2022-10-16T04:51:37;13.60;99.90
37530;DHT22;23374;52.758;6.872;2022-10-16T04:53:57;13.60;99.90
37530;DHT22;23374;52.758;6.872;2022-10-16T04:56:17;13.60;99.90
37530;DHT22;23374;52.758;6.872;2022-10-16T04:58:38;13.60;99.90
37530;DHT22;23374;52.758;6.872;2022-10-16T05:00:58;13.60;99.90
37530;DHT22;23374;52.758;6.872;2022-10-16T05:03:19;13.60;99.90
37530;DHT22;23374;52.758;6.872;2022-10-16T05:05:43;13.60;99.90
37530;DHT22;23374;52.758;6.872;2022-10-16T05:08:04;13.60;99.90
37530;DHT22;23374;52.758;6.872;2022-10-16T05:10:25;13.60;99.90
37530;DHT22;23374;52.758;6.872;2022-10-16T05:12:46;13.50;99.90
37530;DHT22;23374;52.758;6.872;2022-10-16T05:15:08;13.50;99.90
37530;DHT22;23374;52.758;6.872;2022-10-16T05:17:28;13.50;99.90
37530;DHT22;23374;52.758;6.872;2022-10-16T05:19:49;13.50;99.90
37530;DHT22;23374;52.758;6.872;2022-10-16T05:22:10;13.50;99.90
37530;DHT22;23374;52.758;6.872;2022-10-16T05:24:30;13.50;99.90
37530;DHT22;23374;52.758;6.872;2022-10-16T05:26:51;13.50;99.90
37530;DHT22;23374;52.758;6.872;2022-10-16T05:29:11;13.50;99.90
37530;DHT22;23374;52.758;6.872;2022-10-16T05:31:32;13.50;99.90
37530;DHT22;23374;52.758;6.872;2022-10-16T05:34:00;13.50;99.90
37530;DHT22;23374;52.758;6.872;2022-10-16T05:36:22;13.50;99.90
37530;DHT22;23374;52.758;6.872;2022-10-16T05:38:42;13.50;99.90
37530;DHT22;23374;52.758;6.872;2022-10-16T05:41:04;13.40;99.90
37530;DHT22;23374;52.758;6.872;2022-10-16T05:43:26;13.40;99.90
37530;DHT22;23374;52.758;6.872;2022-10-16T05:46:01;13.40;99.90
37530;DHT22;23374;52.758;6.872;2022-10-16T05:48:22;13.40;99.90
37530;DHT22;23374;52.758;6.872;2022-10-16T05:50:42;13.40;99.90
37530;DHT22;23374;52.758;6.872;2022-10-16T05:53:02;13.40;99.90
37530;DHT22;23374;52.758;6.872;2022-10-16T05:55:23;13.40;99.90
37530;DHT22;23374;52.758;6.872;2022-10-16T05:57:43;13.40;99.90
37530;DHT22;23374;52.758;6.872;2022-10-16T06:00:04;13.40;99.90
37530;DHT22;23374;52.758;6.872;2022-10-16T06:02:25;13.40;99.90
37530;DHT22;23374;52.758;6.872;2022-10-16T06:04:45;13.40;99.90
37530;DHT22;23374;52.758;6.872;2022-10-16T06:07:05;13.40;99.90
37530;DHT22;23374;52.758;6.872;2022-10-16T06:09:26;13.40;99.90
37530;DHT22;23374;52.758;6.872;2022-10-16T06:11:46;13.40;99.90
37530;DHT22;23374;52.758;6.872;2022-10-16T06:14:08;13.40;99.90
37530;DHT22;23374;52.758;6.872;2022-10-16T06:16:29;13.40;99.90
37530;DHT22;23374;52.758;6.872;2022-10-16T06:18:54;13.40;99.90
37530;DHT22;23374;52.758;6.872;2022-10-16T06:21:25;13.40;99.90
37530;DHT22;23374;52.758;6.872;2022-10-16T06:23:46;13.50;99.90
37530;DHT22;23374;52.758;6.872;2022-10-16T06:26:09;13.50;99.90
37530;DHT22;23374;52.758;6.872;2022-10-16T06:28:30;13.50;99.90
37530;DHT22;23374;52.758;6.872;2022-10-16T06:30:59;13.50;99.90
37530;DHT22;23374;52.758;6.872;2022-10-16T06:33:20;13.50;99.90
37530;DHT22;23374;52.758;6.872;2022-10-16T06:35:40;13.50;99.90
37530;DHT22;23374;52.758;6.872;2022-10-16T06:38:00;13.50;99.90
37530;DHT22;23374;52.758;6.872;2022-10-16T06:40:20;13.50;99.90
37530;DHT22;23374;52.758;6.872;2022-10-16T06:42:42;13.50;99.90
37530;DHT22;23374;52.758;6.872;2022-10-16T06:45:05;13.50;99.90
37530;DHT22;23374;52.758;6.872;2022-10-16T06:47:25;13.50;99.90
37530;DHT22;23374;52.758;6.872;2022-10-16T06:49:45;13.50;99.90
37530;DHT22;23374;52.758;6.872;2022-10-16T06:52:06;13.50;99.90
37530;DHT22;23374;52.758;6.872;2022-10-16T06:54:26;13.50;99.90
37530;DHT22;23374;52.758;6.872;2022-10-16T06:56:46;13.60;99.90
37530;DHT22;23374;52.758;6.872;2022-10-16T06:59:07;13.60;99.90
37530;DHT22;23374;52.758;6.872;2022-10-16T07:01:28;13.60;99.90
37530;DHT22;23374;52.758;6.872;2022-10-16T07:03:49;13.60;99.90
37530;DHT22;23374;52.758;6.872;2022-10-16T07:06:13;13.60;99.90
37530;DHT22;23374;52.758;6.872;2022-10-16T07:08:39;13.60;99.90
37530;DHT22;23374;52.758;6.872;2022-10-16T07:11:08;13.60;99.90
37530;DHT22;23374;52.758;6.872;2022-10-16T07:13:29;13.60;99.90
37530;DHT22;23374;52.758;6.872;2022-10-16T07:15:49;13.70;99.90
37530;DHT22;23374;52.758;6.872;2022-10-16T07:18:10;13.70;99.90
37530;DHT22;23374;52.758;6.872;2022-10-16T07:20:30;13.70;99.90
37530;DHT22;23374;52.758;6.872;2022-10-16T07:22:50;13.70;99.90
37530;DHT22;23374;52.758;6.872;2022-10-16T07:25:11;13.70;99.90
37530;DHT22;23374;52.758;6.872;2022-10-16T07:27:31;13.70;99.90
37530;DHT22;23374;52.758;6.872;2022-10-16T07:29:51;13.80;99.90
37530;DHT22;23374;52.758;6.872;2022-10-16T07:32:11;13.80;99.90
37530;DHT22;23374;52.758;6.872;2022-10-16T07:34:32;13.80;99.90
37530;DHT22;23374;52.758;6.872;2022-10-16T07:36:52;13.80;99.90
37530;DHT22;23374;52.758;6.872;2022-10-16T07:39:12;13.80;99.90
37530;DHT22;23374;52.758;6.872;2022-10-16T07:41:32;13.80;99.90
37530;DHT22;23374;52.758;6.872;2022-10-16T07:43:56;13.90;99.90
37530;DHT22;23374;52.758;6.872;2022-10-16T07:46:21;13.90;99.90
37530;DHT22;23374;52.758;6.872;2022-10-16T07:48:43;13.90;99.90
37530;DHT22;23374;52.758;6.872;2022-10-16T07:51:07;14.00;99.90
37530;DHT22;23374;52.758;6.872;2022-10-16T07:53:28;14.00;99.90
37530;DHT22;23374;52.758;6.872;2022-10-16T07:55:48;14.10;99.90
37530;DHT22;23374;52.758;6.872;2022-10-16T07:58:08;14.10;99.90
37530;DHT22;23374;52.758;6.872;2022-10-16T08:00:29;14.10;99.90
37530;DHT22;23374;52.758;6.872;2022-10-16T08:02:50;14.10;99.90
37530;DHT22;23374;52.758;6.872;2022-10-16T08:05:10;14.10;99.90
37530;DHT22;23374;52.758;6.872;2022-10-16T08:07:30;14.10;99.90
37530;DHT22;23374;52.758;6.872;2022-10-16T08:09:51;14.10;99.90
37530;DHT22;23374;52.758;6.872;2022-10-16T08:12:12;14.10;99.90
37530;DHT22;23374;52.758;6.872;2022-10-16T08:14:32;14.20;99.90
37530;DHT22;23374;52.758;6.872;2022-10-16T08:16:53;14.20;99.90
37530;DHT22;23374;52.758;6.872;2022-10-16T08:19:13;14.20;99.90
37530;DHT22;23374;52.758;6.872;2022-10-16T08:21:35;14.30;99.90
37530;DHT22;23374;52.758;6.872;2022-10-16T08:23:56;14.30;99.90
37530;DHT22;23374;52.758;6.872;2022-10-16T08:26:17;14.40;99.90
37530;DHT22;23374;52.758;6.872;2022-10-16T08:28:37;14.40;99.90
37530;DHT22;23374;52.758;6.872;2022-10-16T08:31:31;14.40;99.90
37530;DHT22;23374;52.758;6.872;2022-10-16T08:33:51;14.40;99.90
37530;DHT22;23374;52.758;6.872;2022-10-16T08:36:13;14.40;99.90
37530;DHT22;23374;52.758;6.872;2022-10-16T08:38:34;14.50;99.90
37530;DHT22;23374;52.758;6.872;2022-10-16T08:44:18;14.60;99.90
37530;DHT22;23374;52.758;6.872;2022-10-16T08:47:34;14.70;99.90
37530;DHT22;23374;52.758;6.872;2022-10-16T08:50:02;14.70;99.90
37530;DHT22;23374;52.758;6.872;2022-10-16T08:52:34;14.80;99.90
37530;DHT22;23374;52.758;6.872;2022-10-16T08:54:56;14.80;99.90
37530;DHT22;23374;52.758;6.872;2022-10-16T08:57:20;14.90;99.90
37530;DHT22;23374;52.758;6.872;2022-10-16T08:59:41;14.90;99.90
37530;DHT22;23374;52.758;6.872;2022-10-16T09:02:01;14.90;99.90
37530;DHT22;23374;52.758;6.872;2022-10-16T09:07:54;14.90;99.90
37530;DHT22;23374;52.758;6.872;2022-10-16T09:10:44;15.00;99.90
37530;DHT22;23374;52.758;6.872;2022-10-16T09:14:17;15.00;99.90
37530;DHT22;23374;52.758;6.872;2022-10-16T09:17:00;15.00;99.90
37530;DHT22;23374;52.758;6.872;2022-10-16T09:19:31;15.00;99.90
37530;DHT22;23374;52.758;6.872;2022-10-16T09:21:54;15.00;99.90
37530;DHT22;23374;52.758;6.872;2022-10-16T09:24:21;15.10;99.90
37530;DHT22;23374;52.758;6.872;2022-10-16T09:26:44;15.10;99.90
37530;DHT22;23374;52.758;6.872;2022-10-16T09:29:05;15.20;99.90
37530;DHT22;23374;52.758;6.872;2022-10-16T09:31:25;15.20;99.90
37530;DHT22;23374;52.758;6.872;2022-10-16T09:33:52;15.30;99.90
37530;DHT22;23374;52.758;6.872;2022-10-16T09:36:13;15.30;99.90
37530;DHT22;23374;52.758;6.872;2022-10-16T09:38:36;15.40;99.90
37530;DHT22;23374;52.758;6.872;2022-10-16T09:40:59;15.40;99.90
37530;DHT22;23374;52.758;6.872;2022-10-16T09:44:03;15.50;99.90
37530;DHT22;23374;52.758;6.872;2022-10-16T09:46:36;15.50;99.90
37530;DHT22;23374;52.758;6.872;2022-10-16T09:49:02;15.60;99.90
37530;DHT22;23374;52.758;6.872;2022-10-16T09:51:35;15.60;99.90
37530;DHT22;23374;52.758;6.872;2022-10-16T09:54:14;15.60;84.40
37530;DHT22;23374;52.758;6.872;2022-10-16T09:56:36;15.70;99.90
37530;DHT22;23374;52.758;6.872;2022-10-16T09:59:20;15.70;99.90
37530;DHT22;23374;52.758;6.872;2022-10-16T10:01:51;15.80;99.90
37530;DHT22;23374;52.758;6.872;2022-10-16T10:04:13;15.90;99.90
37530;DHT22;23374;52.758;6.872;2022-10-16T10:06:37;15.90;99.90
37530;DHT22;23374;52.758;6.872;2022-10-16T10:09:20;16.00;94.60
37530;DHT22;23374;52.758;6.872;2022-10-16T10:14:35;16.00;56.50
37530;DHT22;23374;52.758;6.872;2022-10-16T10:17:23;16.00;79.00
37530;DHT22;23374;52.758;6.872;2022-10-16T10:22:43;16.10;9.50
37530;DHT22;23374;52.758;6.872;2022-10-16T10:26:37;16.10;40.10
37530;DHT22;23374;52.758;6.872;2022-10-16T10:39:22;16.20;5.20
37530;DHT22;23374;52.758;6.872;2022-10-16T10:42:15;16.20;1.00
37530;DHT22;23374;52.758;6.872;2022-10-16T10:49:45;16.40;10.80
37530;DHT22;23374;52.758;6.872;2022-10-16T10:59:15;16.50;1.00
37530;DHT22;23374;52.758;6.872;2022-10-16T11:02:40;16.60;1.00
37530;DHT22;23374;52.758;6.872;2022-10-16T11:07:44;16.70;1.00
37530;DHT22;23374;52.758;6.872;2022-10-16T11:10:16;16.80;1.00
37530;DHT22;23374;52.758;6.872;2022-10-16T11:12:42;16.90;1.00
37530;DHT22;23374;52.758;6.872;2022-10-16T11:15:33;16.90;1.00
37530;DHT22;23374;52.758;6.872;2022-10-16T11:21:10;17.00;1.00
37530;DHT22;23374;52.758;6.872;2022-10-16T11:23:57;17.10;1.00
37530;DHT22;23374;52.758;6.872;2022-10-16T11:26:28;17.20;1.00
37530;DHT22;23374;52.758;6.872;2022-10-16T11:28:54;17.20;1.00
37530;DHT22;23374;52.758;6.872;2022-10-16T11:31:40;17.30;1.00
37530;DHT22;23374;52.758;6.872;2022-10-16T11:35:00;17.30;1.00
37530;DHT22;23374;52.758;6.872;2022-10-16T11:37:41;17.30;1.00
37530;DHT22;23374;52.758;6.872;2022-10-16T11:40:25;17.20;1.00
37530;DHT22;23374;52.758;6.872;2022-10-16T11:43:15;17.20;1.00
37530;DHT22;23374;52.758;6.872;2022-10-16T11:45:54;17.10;1.00
37530;DHT22;23374;52.758;6.872;2022-10-16T11:49:00;17.00;1.00
37530;DHT22;23374;52.758;6.872;2022-10-16T11:51:38;16.90;1.00
37530;DHT22;23374;52.758;6.872;2022-10-16T11:55:39;16.80;1.00
37530;DHT22;23374;52.758;6.872;2022-10-16T11:58:32;16.70;1.00
37530;DHT22;23374;52.758;6.872;2022-10-16T12:01:29;16.80;1.00
37530;DHT22;23374;52.758;6.872;2022-10-16T12:05:02;16.80;1.00
37530;DHT22;23374;52.758;6.872;2022-10-16T12:07:34;17.00;1.00
37530;DHT22;23374;52.758;6.872;2022-10-16T12:09:56;17.00;1.00
37530;DHT22;23374;52.758;6.872;2022-10-16T12:12:38;17.10;1.00
37530;DHT22;23374;52.758;6.872;2022-10-16T12:15:22;17.20;1.00
37530;DHT22;23374;52.758;6.872;2022-10-16T12:17:43;17.30;1.00
37530;DHT22;23374;52.758;6.872;2022-10-16T12:21:05;17.40;1.00
37530;DHT22;23374;52.758;6.872;2022-10-16T12:23:26;17.40;1.00
37530;DHT22;23374;52.758;6.872;2022-10-16T12:25:56;17.50;1.00
37530;DHT22;23374;52.758;6.872;2022-10-16T12:28:22;17.50;99.90
37530;DHT22;23374;52.758;6.872;2022-10-16T12:31:03;17.50;1.00
37530;DHT22;23374;52.758;6.872;2022-10-16T12:33:33;17.60;1.00
37530;DHT22;23374;52.758;6.872;2022-10-16T12:35:54;17.70;1.00
37530;DHT22;23374;52.758;6.872;2022-10-16T12:38:35;17.70;1.00
37530;DHT22;23374;52.758;6.872;2022-10-16T12:41:07;17.70;1.00
37530;DHT22;23374;52.758;6.872;2022-10-16T12:43:46;17.80;99.90
37530;DHT22;23374;52.758;6.872;2022-10-16T12:46:53;17.90;99.90
37530;DHT22;23374;52.758;6.872;2022-10-16T12:49:37;17.90;99.90
37530;DHT22;23374;52.758;6.872;2022-10-16T12:51:59;18.00;99.90
37530;DHT22;23374;52.758;6.872;2022-10-16T12:54:31;18.00;1.00
37530;DHT22;23374;52.758;6.872;2022-10-16T13:02:11;18.00;99.90
37530;DHT22;23374;52.758;6.872;2022-10-16T13:08:20;18.00;99.90
37530;DHT22;23374;52.758;6.872;2022-10-16T13:12:58;18.10;99.90
37530;DHT22;23374;52.758;6.872;2022-10-16T13:17:45;18.00;99.90
37530;DHT22;23374;52.758;6.872;2022-10-16T13:21:51;18.10;99.90
37530;DHT22;23374;52.758;6.872;2022-10-16T13:26:23;18.10;99.90
37530;DHT22;23374;52.758;6.872;2022-10-16T13:28:46;18.10;99.90
37530;DHT22;23374;52.758;6.872;2022-10-16T13:31:19;18.10;1.00
37530;DHT22;23374;52.758;6.872;2022-10-16T13:33:41;18.10;99.90
37530;DHT22;23374;52.758;6.872;2022-10-16T13:36:04;18.10;99.90
37530;DHT22;23374;52.758;6.872;2022-10-16T13:38:31;18.20;99.90
37530;DHT22;23374;52.758;6.872;2022-10-16T13:41:01;18.20;99.90
37530;DHT22;23374;52.758;6.872;2022-10-16T13:43:39;18.20;99.90
37530;DHT22;23374;52.758;6.872;2022-10-16T13:46:10;18.20;99.90
37530;DHT22;23374;52.758;6.872;2022-10-16T13:48:33;18.20;99.90
37530;DHT22;23374;52.758;6.872;2022-10-16T13:51:15;18.20;99.90
37530;DHT22;23374;52.758;6.872;2022-10-16T13:53:36;18.20;99.90
37530;DHT22;23374;52.758;6.872;2022-10-16T13:55:57;18.20;99.90
37530;DHT22;23374;52.758;6.872;2022-10-16T13:58:18;18.30;99.90
37530;DHT22;23374;52.758;6.872;2022-10-16T14:00:38;18.20;99.90
37530;DHT22;23374;52.758;6.872;2022-10-16T14:03:07;18.30;99.90
37530;DHT22;23374;52.758;6.872;2022-10-16T14:05:27;18.30;99.90
37530;DHT22;23374;52.758;6.872;2022-10-16T14:07:50;18.30;99.90
37530;DHT22;23374;52.758;6.872;2022-10-16T14:10:28;18.30;99.90
37530;DHT22;23374;52.758;6.872;2022-10-16T14:14:12;18.30;99.90
37530;DHT22;23374;52.758;6.872;2022-10-16T14:16:33;18.30;99.90
37530;DHT22;23374;52.758;6.872;2022-10-16T14:19:00;18.30;99.90
37530;DHT22;23374;52.758;6.872;2022-10-16T14:21:21;18.20;99.90
37530;DHT22;23374;52.758;6.872;2022-10-16T14:23:43;18.20;99.90
37530;DHT22;23374;52.758;6.872;2022-10-16T14:26:15;18.20;99.90
37530;DHT22;23374;52.758;6.872;2022-10-16T14:28:37;18.20;99.90
37530;DHT22;23374;52.758;6.872;2022-10-16T14:31:02;18.30;99.90
37530;DHT22;23374;52.758;6.872;2022-10-16T14:33:35;18.30;99.90
37530;DHT22;23374;52.758;6.872;2022-10-16T14:36:30;18.30;99.90
37530;DHT22;23374;52.758;6.872;2022-10-16T14:39:14;18.30;99.90
37530;DHT22;23374;52.758;6.872;2022-10-16T14:41:51;18.30;99.90
37530;DHT22;23374;52.758;6.872;2022-10-16T14:44:12;18.30;99.90
37530;DHT22;23374;52.758;6.872;2022-10-16T14:46:38;18.30;1.00
37530;DHT22;23374;52.758;6.872;2022-10-16T14:49:19;18.30;99.90
37530;DHT22;23374;52.758;6.872;2022-10-16T14:51:42;18.30;99.90
37530;DHT22;23374;52.758;6.872;2022-10-16T14:54:04;18.30;1.00
37530;DHT22;23374;52.758;6.872;2022-10-16T14:56:29;18.30;1.00
37530;DHT22;23374;52.758;6.872;2022-10-16T14:58:51;18.20;1.00
37530;DHT22;23374;52.758;6.872;2022-10-16T15:01:12;18.20;1.00
37530;DHT22;23374;52.758;6.872;2022-10-16T15:03:32;18.20;1.00
37530;DHT22;23374;52.758;6.872;2022-10-16T15:05:52;18.10;1.00
37530;DHT22;23374;52.758;6.872;2022-10-16T15:08:12;18.10;99.90
37530;DHT22;23374;52.758;6.872;2022-10-16T15:10:39;18.10;1.00
37530;DHT22;23374;52.758;6.872;2022-10-16T15:13:00;18.10;1.00
37530;DHT22;23374;52.758;6.872;2022-10-16T15:17:13;18.00;1.00
37530;DHT22;23374;52.758;6.872;2022-10-16T15:19:33;18.00;1.00
37530;DHT22;23374;52.758;6.872;2022-10-16T15:21:54;18.00;1.00
37530;DHT22;23374;52.758;6.872;2022-10-16T15:24:15;17.90;1.00
37530;DHT22;23374;52.758;6.872;2022-10-16T15:26:35;17.90;1.00
37530;DHT22;23374;52.758;6.872;2022-10-16T15:28:56;17.80;1.00
37530;DHT22;23374;52.758;6.872;2022-10-16T15:31:17;17.80;1.00
37530;DHT22;23374;52.758;6.872;2022-10-16T15:33:37;17.70;1.00
37530;DHT22;23374;52.758;6.872;2022-10-16T15:35:58;17.70;1.00
37530;DHT22;23374;52.758;6.872;2022-10-16T15:38:21;17.60;1.00
37530;DHT22;23374;52.758;6.872;2022-10-16T15:40:42;17.60;1.00
37530;DHT22;23374;52.758;6.872;2022-10-16T15:43:02;17.60;1.00
37530;DHT22;23374;52.758;6.872;2022-10-16T15:45:22;17.60;1.00
37530;DHT22;23374;52.758;6.872;2022-10-16T15:47:43;17.60;1.00
37530;DHT22;23374;52.758;6.872;2022-10-16T15:50:05;17.50;1.00
37530;DHT22;23374;52.758;6.872;2022-10-16T15:52:25;17.50;1.00
37530;DHT22;23374;52.758;6.872;2022-10-16T15:54:46;17.50;1.00
37530;DHT22;23374;52.758;6.872;2022-10-16T15:57:06;17.50;1.00
37530;DHT22;23374;52.758;6.872;2022-10-16T15:59:26;17.50;1.00
37530;DHT22;23374;52.758;6.872;2022-10-16T16:01:47;17.40;1.00
37530;DHT22;23374;52.758;6.872;2022-10-16T16:04:07;17.40;1.00
37530;DHT22;23374;52.758;6.872;2022-10-16T16:06:27;17.30;1.00
37530;DHT22;23374;52.758;6.872;2022-10-16T16:08:48;17.30;1.00
37530;DHT22;23374;52.758;6.872;2022-10-16T16:11:12;17.30;1.00
37530;DHT22;23374;52.758;6.872;2022-10-16T16:13:33;17.20;1.00
37530;DHT22;23374;52.758;6.872;2022-10-16T16:15:53;17.20;1.00
37530;DHT22;23374;52.758;6.872;2022-10-16T16:18:14;17.10;1.00
37530;DHT22;23374;52.758;6.872;2022-10-16T16:20:34;17.00;1.00
37530;DHT22;23374;52.758;6.872;2022-10-16T16:22:54;16.90;1.00
37530;DHT22;23374;52.758;6.872;2022-10-16T16:25:14;16.80;1.00
37530;DHT22;23374;52.758;6.872;2022-10-16T16:27:34;16.70;1.00
37530;DHT22;23374;52.758;6.872;2022-10-16T16:29:56;16.60;1.00
37530;DHT22;23374;52.758;6.872;2022-10-16T16:32:16;16.50;1.00
37530;DHT22;23374;52.758;6.872;2022-10-16T16:34:36;16.40;1.00
37530;DHT22;23374;52.758;6.872;2022-10-16T16:36:57;16.30;1.00
37530;DHT22;23374;52.758;6.872;2022-10-16T16:39:17;16.10;1.00
37530;DHT22;23374;52.758;6.872;2022-10-16T16:41:38;16.10;1.00
37530;DHT22;23374;52.758;6.872;2022-10-16T16:44:06;16.00;1.00